Time,TemperatureF,DewpointF,PressureIn,WindDirection,WindDirectionDegrees,WindSpeedMPH,WindSpeedGustMPH,Humidity,HourlyPrecipIn,Conditions,Clouds,dailyrainin,SoftwareType,DateUTC
2013-03-22 00:00:00,31.9,14.4,29.92,WNW,286,0.0,3.0,48,0.00,,---,0.00,VWS V14.01,2013-03-22 04:00:00,
2013-03-22 00:05:00,31.8,13.9,29.92,WNW,286,1.0,2.0,47,0.00,,---,0.00,VWS V14.01,2013-03-22 04:05:00,
2013-03-22 00:10:00,31.6,14.2,29.92,WNW,286,0.0,2.0,48,0.00,,---,0.00,VWS V14.01,2013-03-22 04:10:00,
2013-03-22 00:15:00,31.5,14.1,29.92,WNW,286,0.0,2.0,48,0.00,,---,0.00,VWS V14.01,2013-03-22 04:15:00,
2013-03-22 00:20:00,31.4,14.0,29.92,WNW,286,0.0,2.0,48,0.00,,---,0.00,VWS V14.01,2013-03-22 04:20:00,
2013-03-22 00:25:00,31.2,15.2,29.92,WNW,286,0.0,2.0,51,0.00,,---,0.00,VWS V14.01,2013-03-22 04:25:00,
2013-03-22 00:30:00,31.0,14.1,29.92,WNW,290,0.0,2.0,49,0.00,,---,0.00,VWS V14.01,2013-03-22 04:30:00,
2013-03-22 00:35:00,30.9,14.0,29.92,WNW,296,0.0,1.0,49,0.00,,---,0.00,VWS V14.01,2013-03-22 04:35:00,
2013-03-22 00:40:00,30.8,13.9,29.92,WNW,296,0.0,1.0,49,0.00,,---,0.00,VWS V14.01,2013-03-22 04:40:00,
2013-03-22 00:45:00,30.6,14.2,29.92,WNW,296,0.0,1.0,50,0.00,,---,0.00,VWS V14.01,2013-03-22 04:45:00,
2013-03-22 00:50:00,30.6,14.2,29.92,NNW,330,0.0,1.0,50,0.00,,---,0.00,VWS V14.01,2013-03-22 04:50:00,
2013-03-22 00:55:00,30.5,13.6,29.92,NNW,342,0.0,1.0,49,0.00,,---,0.00,VWS V14.01,2013-03-22 04:55:00,
2013-03-22 01:00:00,30.5,14.1,29.93,NNW,342,0.0,1.0,50,0.00,,---,0.00,VWS V14.01,2013-03-22 05:00:00,
2013-03-22 01:05:00,30.4,14.0,29.93,NNW,342,0.0,1.0,50,0.00,,---,0.00,VWS V14.01,2013-03-22 05:05:00,
2013-03-22 01:10:00,30.4,14.4,29.93,WNW,292,0.0,4.0,51,0.00,,---,0.00,VWS V14.01,2013-03-22 05:10:00,
2013-03-22 01:15:00,30.3,14.4,29.92,NE,55,0.0,4.0,51,0.00,,---,0.00,VWS V14.01,2013-03-22 05:15:00,
2013-03-22 01:20:00,30.3,14.4,29.93,NE,55,0.0,4.0,51,0.00,,---,0.00,VWS V14.01,2013-03-22 05:20:00,
2013-03-22 01:25:00,30.2,14.3,29.93,NW,311,0.0,4.0,51,0.00,,---,0.00,VWS V14.01,2013-03-22 05:25:00,
2013-03-22 01:30:00,30.2,14.3,29.92,NW,311,0.0,4.0,51,0.00,,---,0.00,VWS V14.01,2013-03-22 05:30:00,
2013-03-22 01:35:00,30.1,14.6,29.92,NE,49,0.0,2.0,52,0.00,,---,0.00,VWS V14.01,2013-03-22 05:35:00,
2013-03-22 01:40:00,30.1,14.2,29.92,NNW,329,0.0,3.0,51,0.00,,---,0.00,VWS V14.01,2013-03-22 05:40:00,
2013-03-22 01:45:00,30.2,14.3,29.93,NNW,343,0.0,5.0,51,0.00,,---,0.00,VWS V14.01,2013-03-22 05:45:00,
2013-03-22 01:50:00,30.1,14.2,29.93,NNE,26,0.0,5.0,51,0.00,,---,0.00,VWS V14.01,2013-03-22 05:50:00,
2013-03-22 01:55:00,30.2,14.3,29.93,NNE,31,0.0,5.0,51,0.00,,---,0.00,VWS V14.01,2013-03-22 05:55:00,
2013-03-22 02:00:00,30.2,13.8,29.93,ENE,58,0.0,7.0,50,0.00,,---,0.00,VWS V14.01,2013-03-22 06:00:00,
2013-03-22 02:05:00,30.3,13.9,29.93,ESE,104,0.0,2.0,50,0.00,,---,0.00,VWS V14.01,2013-03-22 06:05:00,
2013-03-22 02:10:00,30.3,13.9,29.93,NE,50,0.0,2.0,50,0.00,,---,0.00,VWS V14.01,2013-03-22 06:10:00,
2013-03-22 02:15:00,30.3,14.4,29.93,North,5,0.0,3.0,51,0.00,,---,0.00,VWS V14.01,2013-03-22 06:15:00,
2013-03-22 02:20:00,30.3,14.4,29.93,NW,310,0.0,3.0,51,0.00,,---,0.00,VWS V14.01,2013-03-22 06:20:00,
2013-03-22 02:25:00,30.3,14.4,29.93,East,97,0.0,3.0,51,0.00,,---,0.00,VWS V14.01,2013-03-22 06:25:00,
2013-03-22 02:30:00,30.3,14.4,29.93,ENE,69,0.0,3.0,51,0.00,,---,0.00,VWS V14.01,2013-03-22 06:30:00,
2013-03-22 02:35:00,30.2,14.7,29.93,SE,130,0.0,2.0,52,0.00,,---,0.00,VWS V14.01,2013-03-22 06:35:00,
2013-03-22 02:40:00,30.1,14.6,29.93,NNW,329,0.0,4.0,52,0.00,,---,0.00,VWS V14.01,2013-03-22 06:40:00,
2013-03-22 02:45:00,30.1,14.6,29.93,NNW,330,0.0,4.0,52,0.00,,---,0.00,VWS V14.01,2013-03-22 06:45:00,
2013-03-22 02:50:00,30.0,14.5,29.93,NNW,330,0.0,4.0,52,0.00,,---,0.00,VWS V14.01,2013-03-22 06:50:00,
2013-03-22 02:55:00,29.9,14.4,29.93,NNW,330,0.0,4.0,52,0.00,,---,0.00,VWS V14.01,2013-03-22 06:55:00,
2013-03-22 03:00:00,29.8,14.3,29.93,NNW,330,0.0,4.0,52,0.00,,---,0.00,VWS V14.01,2013-03-22 07:00:00,
2013-03-22 03:05:00,29.7,14.2,29.93,NNW,330,0.0,1.0,52,0.00,,---,0.00,VWS V14.01,2013-03-22 07:05:00,
2013-03-22 03:10:00,29.7,14.7,29.93,NNW,330,0.0,1.0,53,0.00,,---,0.00,VWS V14.01,2013-03-22 07:10:00,
2013-03-22 03:15:00,29.5,14.9,29.92,NNW,330,0.0,1.0,54,0.00,,---,0.00,VWS V14.01,2013-03-22 07:15:00,
2013-03-22 03:20:00,29.3,15.1,29.92,NNW,334,0.0,1.0,55,0.00,,---,0.00,VWS V14.01,2013-03-22 07:20:00,
2013-03-22 03:25:00,29.2,15.1,29.92,NNW,334,0.0,1.0,55,0.00,,---,0.00,VWS V14.01,2013-03-22 07:25:00,
2013-03-22 03:30:00,29.0,14.4,29.92,NNW,340,0.0,1.0,54,0.00,,---,0.00,VWS V14.01,2013-03-22 07:30:00,
2013-03-22 03:35:00,29.0,14.4,29.92,NNW,340,0.0,0.0,54,0.00,,---,0.00,VWS V14.01,2013-03-22 07:35:00,
2013-03-22 03:40:00,28.9,14.8,29.92,NW,324,0.0,1.0,55,0.00,,---,0.00,VWS V14.01,2013-03-22 07:40:00,
2013-03-22 03:45:00,28.8,14.7,29.92,NW,324,0.0,1.0,55,0.00,,---,0.00,VWS V14.01,2013-03-22 07:45:00,
2013-03-22 03:50:00,28.7,14.6,29.92,NW,324,0.0,1.0,55,0.00,,---,0.00,VWS V14.01,2013-03-22 07:50:00,
2013-03-22 03:55:00,28.6,15.3,29.92,NE,56,0.0,1.0,57,0.00,,---,0.00,VWS V14.01,2013-03-22 07:55:00,
2013-03-22 04:00:00,28.5,14.8,29.92,NE,56,0.0,1.0,56,0.00,,---,0.00,VWS V14.01,2013-03-22 08:00:00,
2013-03-22 04:05:00,28.4,15.1,29.92,NE,56,0.0,0.0,57,0.00,,---,0.00,VWS V14.01,2013-03-22 08:05:00,
2013-03-22 04:10:00,28.3,15.8,29.92,NE,56,0.0,0.0,59,0.00,,---,0.00,VWS V14.01,2013-03-22 08:10:00,
2013-03-22 04:15:00,28.2,16.5,29.93,NE,56,0.0,0.0,61,0.00,,---,0.00,VWS V14.01,2013-03-22 08:15:00,
2013-03-22 04:20:00,27.9,15.4,29.93,NE,56,0.0,1.0,59,0.00,,---,0.00,VWS V14.01,2013-03-22 08:20:00,
2013-03-22 04:25:00,27.8,15.0,29.93,NE,56,0.0,1.0,58,0.00,,---,0.00,VWS V14.01,2013-03-22 08:25:00,
2013-03-22 04:30:00,27.6,14.8,29.94,ENE,67,0.0,1.0,58,0.00,,---,0.00,VWS V14.01,2013-03-22 08:30:00,
2013-03-22 04:35:00,27.6,15.2,29.93,SE,140,0.0,1.0,59,0.00,,---,0.00,VWS V14.01,2013-03-22 08:35:00,
2013-03-22 04:40:00,27.6,15.2,29.94,SE,140,0.0,1.0,59,0.00,,---,0.00,VWS V14.01,2013-03-22 08:40:00,
2013-03-22 04:45:00,27.5,14.7,29.93,SW,231,0.0,1.0,58,0.00,,---,0.00,VWS V14.01,2013-03-22 08:45:00,
2013-03-22 04:50:00,27.5,14.7,29.93,SW,231,0.0,1.0,58,0.00,,---,0.00,VWS V14.01,2013-03-22 08:50:00,
2013-03-22 04:55:00,27.5,14.7,29.94,SW,231,0.0,1.0,58,0.00,,---,0.00,VWS V14.01,2013-03-22 08:55:00,
2013-03-22 05:00:00,27.5,14.7,29.94,SW,231,0.0,1.0,58,0.00,,---,0.00,VWS V14.01,2013-03-22 09:00:00,
2013-03-22 05:05:00,27.5,16.2,29.94,SW,231,0.0,0.0,62,0.00,,---,0.00,VWS V14.01,2013-03-22 09:05:00,
2013-03-22 05:10:00,27.4,15.4,29.94,SW,231,0.0,0.0,60,0.00,,---,0.00,VWS V14.01,2013-03-22 09:10:00,
2013-03-22 05:15:00,27.3,15.6,29.94,SW,231,0.0,0.0,61,0.00,,---,0.00,VWS V14.01,2013-03-22 09:15:00,
2013-03-22 05:20:00,27.2,15.2,29.94,SW,231,0.0,0.0,60,0.00,,---,0.00,VWS V14.01,2013-03-22 09:20:00,
2013-03-22 05:25:00,27.0,15.7,29.95,SW,231,0.0,0.0,62,0.00,,---,0.00,VWS V14.01,2013-03-22 09:25:00,
2013-03-22 05:30:00,26.9,16.0,29.95,SW,231,0.0,0.0,63,0.00,,---,0.00,VWS V14.01,2013-03-22 09:30:00,
2013-03-22 05:35:00,26.8,15.9,29.95,SW,231,0.0,0.0,63,0.00,,---,0.00,VWS V14.01,2013-03-22 09:35:00,
2013-03-22 05:40:00,26.7,15.8,29.95,SW,231,0.0,0.0,63,0.00,,---,0.00,VWS V14.01,2013-03-22 09:40:00,
2013-03-22 05:45:00,26.5,16.0,29.95,SW,231,0.0,0.0,64,0.00,,---,0.00,VWS V14.01,2013-03-22 09:45:00,
2013-03-22 05:50:00,26.2,16.1,29.96,SW,231,0.0,0.0,65,0.00,,---,0.00,VWS V14.01,2013-03-22 09:50:00,
2013-03-22 05:55:00,26.0,16.9,29.96,SW,231,0.0,0.0,68,0.00,,---,0.00,VWS V14.01,2013-03-22 09:55:00,
2013-03-22 06:00:00,25.7,16.3,29.95,SW,231,0.0,0.0,67,0.00,,---,0.00,VWS V14.01,2013-03-22 10:00:00,
2013-03-22 06:05:00,25.4,16.3,29.96,SW,231,0.0,0.0,68,0.00,,---,0.00,VWS V14.01,2013-03-22 10:05:00,
2013-03-22 06:10:00,25.2,16.5,29.96,SW,231,0.0,0.0,69,0.00,,---,0.00,VWS V14.01,2013-03-22 10:10:00,
2013-03-22 06:15:00,24.9,16.5,29.96,SW,231,0.0,0.0,70,0.00,,---,0.00,VWS V14.01,2013-03-22 10:15:00,
2013-03-22 06:20:00,24.6,16.2,29.97,SW,231,0.0,0.0,70,0.00,,---,0.00,VWS V14.01,2013-03-22 10:20:00,
2013-03-22 06:25:00,24.6,16.5,29.97,SW,231,0.0,0.0,71,0.00,,---,0.00,VWS V14.01,2013-03-22 10:25:00,
2013-03-22 06:30:00,24.5,16.5,29.97,SW,231,0.0,0.0,71,0.00,,---,0.00,VWS V14.01,2013-03-22 10:30:00,
2013-03-22 06:35:00,24.4,16.4,29.97,SW,231,0.0,0.0,71,0.00,,---,0.00,VWS V14.01,2013-03-22 10:35:00,
2013-03-22 06:40:00,24.2,16.2,29.98,SW,231,0.0,0.0,71,0.00,,---,0.00,VWS V14.01,2013-03-22 10:40:00,
2013-03-22 06:45:00,24.1,16.1,29.98,SW,231,0.0,0.0,71,0.00,,---,0.00,VWS V14.01,2013-03-22 10:45:00,
2013-03-22 06:50:00,23.9,16.5,29.98,SW,231,0.0,0.0,73,0.00,,---,0.00,VWS V14.01,2013-03-22 10:50:00,
2013-03-22 06:55:00,23.8,16.1,29.98,SW,231,0.0,0.0,72,0.00,,---,0.00,VWS V14.01,2013-03-22 10:55:00,
2013-03-22 07:00:00,23.6,16.2,29.99,SW,231,0.0,0.0,73,0.00,,---,0.00,VWS V14.01,2013-03-22 11:00:00,
2013-03-22 07:05:00,23.5,16.1,29.99,SW,231,0.0,0.0,73,0.00,,---,0.00,VWS V14.01,2013-03-22 11:05:00,
2013-03-22 07:10:00,23.2,16.2,29.99,SW,231,0.0,0.0,74,0.00,,---,0.00,VWS V14.01,2013-03-22 11:10:00,
2013-03-22 07:14:00,22.8,16.4,29.99,SW,231,0.0,0.0,76,0.00,,---,0.00,VWS V14.01,2013-03-22 11:14:00,
2013-03-22 07:20:00,22.6,16.5,30.00,SW,231,0.0,0.0,77,0.00,,---,0.00,VWS V14.01,2013-03-22 11:20:00,
2013-03-22 07:25:00,22.5,16.4,30.00,SW,231,0.0,0.0,77,0.00,,---,0.00,VWS V14.01,2013-03-22 11:25:00,
2013-03-22 07:29:00,22.4,16.0,30.00,SW,231,0.0,0.0,76,0.00,,---,0.00,VWS V14.01,2013-03-22 11:29:00,
2013-03-22 07:30:00,24.4,16.4,29.97,SW,231,0.0,0.0,71,0.00,,---,0.00,VWS V14.01,2013-03-22 11:30:00,
2013-03-22 07:34:00,22.4,16.3,30.00,SW,231,0.0,0.0,77,0.00,,---,0.00,VWS V14.01,2013-03-22 11:34:00,
2013-03-22 07:39:00,22.3,16.5,30.00,SW,231,0.0,0.0,78,0.00,,---,0.00,VWS V14.01,2013-03-22 11:39:00,
2013-03-22 07:44:00,22.1,16.3,30.00,SW,231,0.0,0.0,78,0.00,,---,0.00,VWS V14.01,2013-03-22 11:44:00,
2013-03-22 07:49:00,22.0,16.2,30.01,SW,231,0.0,0.0,78,0.00,,---,0.00,VWS V14.01,2013-03-22 11:49:00,
2013-03-22 07:54:00,22.1,16.3,30.00,SW,231,0.0,0.0,78,0.00,,---,0.00,VWS V14.01,2013-03-22 11:54:00,
2013-03-22 07:59:00,22.1,16.6,30.01,SW,231,0.0,0.0,79,0.00,,---,0.00,VWS V14.01,2013-03-22 11:59:00,
2013-03-22 08:00:00,23.6,16.2,29.99,SW,231,0.0,0.0,73,0.00,,---,0.00,VWS V14.01,2013-03-22 12:00:00,
2013-03-22 08:04:00,22.1,16.9,30.01,SW,231,0.0,0.0,80,0.00,,---,0.00,VWS V14.01,2013-03-22 12:04:00,
2013-03-22 08:09:00,22.2,17.0,30.01,SW,231,0.0,0.0,80,0.00,,---,0.00,VWS V14.01,2013-03-22 12:09:00,
2013-03-22 08:14:00,22.3,16.8,30.01,SW,231,0.0,0.0,79,0.00,,---,0.00,VWS V14.01,2013-03-22 12:14:00,
2013-03-22 08:19:00,22.5,17.0,30.01,SW,231,0.0,0.0,79,0.00,,---,0.00,VWS V14.01,2013-03-22 12:19:00,
2013-03-22 08:24:00,22.9,16.8,30.01,SW,231,0.0,0.0,77,0.00,,---,0.00,VWS V14.01,2013-03-22 12:24:00,
2013-03-22 08:29:00,23.3,17.5,30.01,SW,231,0.0,0.0,78,0.00,,---,0.00,VWS V14.01,2013-03-22 12:29:00,
2013-03-22 08:30:00,22.4,16.0,30.00,SW,231,0.0,0.0,76,0.00,,---,0.00,VWS V14.01,2013-03-22 12:30:00,
2013-03-22 08:34:00,23.9,17.5,30.02,SW,231,0.0,0.0,76,0.00,,---,0.00,VWS V14.01,2013-03-22 12:34:00,
2013-03-22 08:39:00,24.5,17.4,30.02,SW,231,0.0,1.0,74,0.00,,---,0.00,VWS V14.01,2013-03-22 12:39:00,
2013-03-22 08:44:00,25.1,17.4,30.02,SW,231,0.0,1.0,72,0.00,,---,0.00,VWS V14.01,2013-03-22 12:44:00,
2013-03-22 08:49:00,25.7,17.6,30.02,SW,231,0.0,1.0,71,0.00,,---,0.00,VWS V14.01,2013-03-22 12:49:00,
2013-03-22 08:54:00,26.5,18.0,30.02,WSW,254,0.0,6.0,70,0.00,,---,0.00,VWS V14.01,2013-03-22 12:54:00,
2013-03-22 08:59:00,27.3,17.8,30.02,SW,215,1.0,6.0,67,0.00,,---,0.00,VWS V14.01,2013-03-22 12:59:00,
2013-03-22 09:00:00,22.1,16.6,30.00,SW,231,0.0,0.0,79,0.00,,---,0.00,VWS V14.01,2013-03-22 13:00:00,
2013-03-22 09:04:00,28.0,17.4,30.02,SW,215,1.0,1.0,64,0.00,,---,0.00,VWS V14.01,2013-03-22 13:04:00,
2013-03-22 09:09:00,28.8,17.4,30.02,North,360,0.0,3.0,62,0.00,,---,0.00,VWS V14.01,2013-03-22 13:09:00,
2013-03-22 09:14:00,29.5,17.7,30.02,NNW,333,0.0,3.0,61,0.00,,---,0.00,VWS V14.01,2013-03-22 13:14:00,
2013-03-22 09:19:00,30.1,17.5,30.02,West,277,3.0,4.0,59,0.00,,---,0.00,VWS V14.01,2013-03-22 13:19:00,
2013-03-22 09:24:00,30.7,16.5,30.02,WNW,301,0.0,5.0,55,0.00,,---,0.00,VWS V14.01,2013-03-22 13:24:00,
2013-03-22 09:30:00,31.2,16.9,30.01,NW,322,2.0,5.0,55,0.00,,---,0.00,VWS V14.01,2013-03-22 13:30:00,
2013-03-22 09:34:00,31.9,16.7,30.02,NNE,28,2.0,4.0,53,0.00,,---,0.00,VWS V14.01,2013-03-22 13:34:00,
2013-03-22 09:39:00,32.5,16.9,30.02,NW,315,1.0,4.0,52,0.00,,---,0.00,VWS V14.01,2013-03-22 13:39:00,
2013-03-22 09:45:00,33.0,16.4,30.01,ENE,57,2.0,5.0,50,0.00,,---,0.00,VWS V14.01,2013-03-22 13:45:00,
2013-03-22 09:50:00,33.4,16.8,30.01,WNW,290,0.0,5.0,50,0.00,,---,0.00,VWS V14.01,2013-03-22 13:50:00,
2013-03-22 09:55:00,33.9,16.8,30.01,NE,35,3.0,5.0,49,0.00,,---,0.00,VWS V14.01,2013-03-22 13:55:00,
2013-03-22 10:00:00,34.4,17.2,30.01,NNE,32,3.0,5.0,49,0.00,,---,0.00,VWS V14.01,2013-03-22 14:00:00,
2013-03-22 10:05:00,34.7,16.5,30.01,West,278,0.0,4.0,47,0.00,,---,0.00,VWS V14.01,2013-03-22 14:05:00,
2013-03-22 10:10:00,35.0,16.8,30.01,West,277,2.0,4.0,47,0.00,,---,0.00,VWS V14.01,2013-03-22 14:10:00,
2013-03-22 10:15:00,35.3,16.6,30.01,NW,316,4.0,4.0,46,0.00,,---,0.00,VWS V14.01,2013-03-22 14:15:00,
2013-03-22 10:20:00,35.7,17.0,30.01,WSW,252,0.0,4.0,46,0.00,,---,0.00,VWS V14.01,2013-03-22 14:20:00,
2013-03-22 10:25:00,36.2,16.9,30.01,NW,323,2.0,5.0,45,0.00,,---,0.00,VWS V14.01,2013-03-22 14:25:00,
2013-03-22 10:29:00,36.7,15.8,30.01,North,351,3.0,5.0,42,0.00,,---,0.00,VWS V14.01,2013-03-22 14:29:00,
2013-03-22 10:30:00,31.4,17.1,30.01,West,269,0.0,5.0,55,0.00,,---,0.00,VWS V14.01,2013-03-22 14:30:00,
2013-03-22 10:34:00,37.0,15.5,30.01,NW,323,0.0,1.0,41,0.00,,---,0.00,VWS V14.01,2013-03-22 14:34:00,
2013-03-22 10:39:00,37.4,16.4,30.01,West,261,5.0,7.0,42,0.00,,---,0.00,VWS V14.01,2013-03-22 14:39:00,
2013-03-22 10:44:00,37.8,15.7,30.01,NE,53,2.0,7.0,40,0.00,,---,0.00,VWS V14.01,2013-03-22 14:44:00,
2013-03-22 10:49:00,38.1,17.0,30.01,SSW,209,1.0,7.0,42,0.00,,---,0.00,VWS V14.01,2013-03-22 14:49:00,
2013-03-22 10:54:00,38.4,15.6,30.01,North,355,1.0,7.0,39,0.00,,---,0.00,VWS V14.01,2013-03-22 14:54:00,
2013-03-22 10:59:00,38.6,16.4,30.01,NE,39,2.0,7.0,40,0.00,,---,0.00,VWS V14.01,2013-03-22 14:59:00,
2013-03-22 11:00:00,34.5,16.9,30.01,North,355,1.0,5.0,48,0.00,,---,0.00,VWS V14.01,2013-03-22 15:00:00,
2013-03-22 11:04:00,38.9,15.5,30.01,NW,314,3.0,5.0,38,0.00,,---,0.00,VWS V14.01,2013-03-22 15:04:00,
2013-03-22 11:09:00,39.1,16.2,30.00,West,271,0.0,6.0,39,0.00,,---,0.00,VWS V14.01,2013-03-22 15:09:00,
2013-03-22 11:14:00,39.4,15.9,30.00,WNW,288,5.0,6.0,38,0.00,,---,0.00,VWS V14.01,2013-03-22 15:14:00,
2013-03-22 11:19:00,39.8,16.3,30.00,West,272,1.0,6.0,38,0.00,,---,0.00,VWS V14.01,2013-03-22 15:19:00,
2013-03-22 11:24:00,40.3,16.7,30.00,SW,234,1.0,6.0,38,0.00,,---,0.00,VWS V14.01,2013-03-22 15:24:00,
2013-03-22 11:29:00,40.9,16.6,30.00,ENE,59,2.0,6.0,37,0.00,,---,0.00,VWS V14.01,2013-03-22 15:29:00,
2013-03-22 11:30:00,36.7,15.8,30.01,NW,323,1.0,5.0,42,0.00,,---,0.00,VWS V14.01,2013-03-22 15:30:00,
2013-03-22 11:34:00,41.3,17.0,30.00,South,186,4.0,8.0,37,0.00,,---,0.00,VWS V14.01,2013-03-22 15:34:00,
2013-03-22 11:39:00,41.6,16.6,30.00,WSW,246,6.0,13.0,36,0.00,,---,0.00,VWS V14.01,2013-03-22 15:39:00,
2013-03-22 11:44:00,41.7,16.7,29.99,SW,218,9.0,13.0,36,0.00,,---,0.00,VWS V14.01,2013-03-22 15:44:00,
2013-03-22 11:49:00,41.9,16.9,29.99,WSW,251,5.0,13.0,36,0.00,,---,0.00,VWS V14.01,2013-03-22 15:49:00,
2013-03-22 11:54:00,42.2,16.5,29.99,WSW,244,2.0,13.0,35,0.00,,---,0.00,VWS V14.01,2013-03-22 15:54:00,
2013-03-22 11:59:00,42.5,16.1,29.99,West,273,10.0,13.0,34,0.00,,---,0.00,VWS V14.01,2013-03-22 15:59:00,
2013-03-22 12:00:00,38.7,15.9,30.01,NNW,329,0.0,7.0,39,0.00,,---,0.00,VWS V14.01,2013-03-22 16:00:00,
2013-03-22 12:04:00,43.0,16.6,29.99,NW,326,1.0,7.0,34,0.00,,---,0.00,VWS V14.01,2013-03-22 16:04:00,
2013-03-22 12:09:00,43.4,16.2,29.99,West,275,0.0,11.0,33,0.00,,---,0.00,VWS V14.01,2013-03-22 16:09:00,
2013-03-22 12:14:00,43.9,17.4,29.99,SW,224,2.0,11.0,34,0.00,,---,0.00,VWS V14.01,2013-03-22 16:14:00,
2013-03-22 12:19:00,44.5,18.6,29.99,WSW,237,9.0,11.0,35,0.00,,---,0.00,VWS V14.01,2013-03-22 16:19:00,
2013-03-22 12:24:00,44.7,17.4,29.98,NNE,20,4.0,11.0,33,0.00,,---,0.00,VWS V14.01,2013-03-22 16:24:00,
2013-03-22 12:29:00,44.8,16.8,29.98,West,276,4.0,12.0,32,0.00,,---,0.00,VWS V14.01,2013-03-22 16:29:00,
2013-03-22 12:30:00,41.0,17.4,30.00,SSW,209,0.0,6.0,38,0.00,,---,0.00,VWS V14.01,2013-03-22 16:30:00,
2013-03-22 12:34:00,44.9,17.6,29.98,NNW,335,1.0,5.0,33,0.00,,---,0.00,VWS V14.01,2013-03-22 16:34:00,
2013-03-22 12:39:00,45.3,17.2,29.98,WNW,295,3.0,11.0,32,0.00,,---,0.00,VWS V14.01,2013-03-22 16:39:00,
2013-03-22 12:44:00,45.3,17.2,29.98,West,264,3.0,14.0,32,0.00,,---,0.00,VWS V14.01,2013-03-22 16:44:00,
2013-03-22 12:49:00,45.4,18.0,29.98,NNW,345,5.0,14.0,33,0.00,,---,0.00,VWS V14.01,2013-03-22 16:49:00,
2013-03-22 12:54:00,45.8,17.6,29.98,West,267,1.0,14.0,32,0.00,,---,0.00,VWS V14.01,2013-03-22 16:54:00,
2013-03-22 12:59:00,46.2,17.2,29.97,NW,321,3.0,14.0,31,0.00,,---,0.00,VWS V14.01,2013-03-22 16:59:00,
2013-03-22 13:00:00,42.6,15.5,29.99,SW,233,4.0,13.0,33,0.00,,---,0.00,VWS V14.01,2013-03-22 17:00:00,
2013-03-22 13:04:00,46.7,18.4,29.97,NNW,334,1.0,4.0,32,0.00,,---,0.00,VWS V14.01,2013-03-22 17:04:00,
2013-03-22 13:09:00,47.3,19.0,29.97,WSW,254,3.0,9.0,32,0.00,,---,0.00,VWS V14.01,2013-03-22 17:09:00,
2013-03-22 13:14:00,47.4,17.5,29.97,West,277,4.0,10.0,30,0.00,,---,0.00,VWS V14.01,2013-03-22 17:14:00,
2013-03-22 13:19:00,47.4,19.0,29.96,NW,323,1.0,10.0,32,0.00,,---,0.00,VWS V14.01,2013-03-22 17:19:00,
2013-03-22 13:24:00,47.6,19.2,29.96,NW,323,5.0,10.0,32,0.00,,---,0.00,VWS V14.01,2013-03-22 17:24:00,
2013-03-22 13:29:00,47.7,17.8,29.96,NW,304,1.0,11.0,30,0.00,,---,0.00,VWS V14.01,2013-03-22 17:29:00,
2013-03-22 13:30:00,44.8,17.5,29.98,West,273,4.0,12.0,33,0.00,,---,0.00,VWS V14.01,2013-03-22 17:30:00,
2013-03-22 13:34:00,46.9,17.1,29.96,East,92,1.0,5.0,30,0.00,,---,0.00,VWS V14.01,2013-03-22 17:34:00,
2013-03-22 13:39:00,47.2,19.6,29.95,WNW,302,4.0,11.0,33,0.00,,---,0.00,VWS V14.01,2013-03-22 17:39:00,
2013-03-22 13:44:00,47.6,19.2,29.95,NNE,17,3.0,11.0,32,0.00,,---,0.00,VWS V14.01,2013-03-22 17:44:00,
2013-03-22 13:49:00,47.9,18.0,29.95,WSW,244,5.0,11.0,30,0.00,,---,0.00,VWS V14.01,2013-03-22 17:49:00,
2013-03-22 13:54:00,48.3,19.1,29.95,WSW,254,3.0,11.0,31,0.00,,---,0.00,VWS V14.01,2013-03-22 17:54:00,
2013-03-22 13:59:00,48.7,18.7,29.95,SW,233,1.0,11.0,30,0.00,,---,0.00,VWS V14.01,2013-03-22 17:59:00,
2013-03-22 14:00:00,46.3,18.1,29.97,WNW,299,0.0,14.0,32,0.00,,---,0.00,VWS V14.01,2013-03-22 18:00:00,
2013-03-22 14:04:00,48.9,18.1,29.94,North,360,3.0,4.0,29,0.00,,---,0.00,VWS V14.01,2013-03-22 18:04:00,
2013-03-22 14:09:00,49.4,19.3,29.94,NNW,347,2.0,4.0,30,0.00,,---,0.00,VWS V14.01,2013-03-22 18:09:00,
2013-03-22 14:14:00,49.7,19.5,29.93,North,355,2.0,7.0,30,0.00,,---,0.00,VWS V14.01,2013-03-22 18:14:00,
2013-03-22 14:19:00,49.9,19.7,29.93,NNE,26,1.0,7.0,30,0.00,,---,0.00,VWS V14.01,2013-03-22 18:19:00,
2013-03-22 14:24:00,50.2,20.0,29.93,WNW,295,1.0,7.0,30,0.00,,---,0.00,VWS V14.01,2013-03-22 18:24:00,
2013-03-22 14:29:00,50.8,22.0,29.92,West,272,5.0,7.0,32,0.00,,---,0.00,VWS V14.01,2013-03-22 18:29:00,
2013-03-22 14:30:00,47.6,17.7,29.96,SE,130,3.0,11.0,30,0.00,,---,0.00,VWS V14.01,2013-03-22 18:30:00,
2013-03-22 14:34:00,50.9,20.6,29.92,WNW,294,6.0,7.0,30,0.00,,---,0.00,VWS V14.01,2013-03-22 18:34:00,
2013-03-22 14:39:00,50.9,20.6,29.92,West,279,8.0,10.0,30,0.00,,---,0.00,VWS V14.01,2013-03-22 18:39:00,
2013-03-22 14:44:00,50.8,18.0,29.92,West,272,3.0,10.0,27,0.00,,---,0.00,VWS V14.01,2013-03-22 18:44:00,
2013-03-22 14:49:00,50.8,18.9,29.92,WNW,300,2.0,12.0,28,0.00,,---,0.00,VWS V14.01,2013-03-22 18:49:00,
2013-03-22 14:54:00,50.9,19.0,29.91,NW,323,3.0,12.0,28,0.00,,---,0.00,VWS V14.01,2013-03-22 18:54:00,
2013-03-22 14:59:00,51.2,18.4,29.91,WNW,296,4.0,12.0,27,0.00,,---,0.00,VWS V14.01,2013-03-22 18:59:00,
2013-03-22 15:00:00,48.8,17.2,29.94,SW,233,0.0,11.0,28,0.00,,---,0.00,VWS V14.01,2013-03-22 19:00:00,
2013-03-22 15:04:00,51.4,21.0,29.91,South,175,2.0,8.0,30,0.00,,---,0.00,VWS V14.01,2013-03-22 19:04:00,
2013-03-22 15:09:00,51.5,18.6,29.91,West,280,4.0,8.0,27,0.00,,---,0.00,VWS V14.01,2013-03-22 19:09:00,
2013-03-22 15:14:00,51.3,18.5,29.91,NW,315,3.0,9.0,27,0.00,,---,0.00,VWS V14.01,2013-03-22 19:14:00,
2013-03-22 15:19:00,51.5,18.6,29.91,SSW,203,4.0,9.0,27,0.00,,---,0.00,VWS V14.01,2013-03-22 19:19:00,
2013-03-22 15:24:00,51.3,17.6,29.91,SW,227,2.0,10.0,26,0.00,,---,0.00,VWS V14.01,2013-03-22 19:24:00,
2013-03-22 15:29:00,51.3,17.6,29.90,WSW,256,0.0,10.0,26,0.00,,---,0.00,VWS V14.01,2013-03-22 19:29:00,
2013-03-22 15:30:00,50.8,19.7,29.93,WNW,296,5.0,7.0,29,0.00,,---,0.00,VWS V14.01,2013-03-22 19:30:00,
2013-03-22 15:34:00,51.3,20.1,29.90,WNW,300,5.0,5.0,29,0.00,,---,0.00,VWS V14.01,2013-03-22 19:34:00,
2013-03-22 15:39:00,51.3,19.3,29.91,NNE,20,1.0,10.0,28,0.00,,---,0.00,VWS V14.01,2013-03-22 19:39:00,
2013-03-22 15:44:00,51.3,19.3,29.91,WSW,257,0.0,12.0,28,0.00,,---,0.00,VWS V14.01,2013-03-22 19:44:00,
2013-03-22 15:49:00,51.7,18.8,29.90,West,265,6.0,12.0,27,0.00,,---,0.00,VWS V14.01,2013-03-22 19:49:00,
2013-03-22 15:54:00,52.0,19.9,29.90,SSW,194,5.0,12.0,28,0.00,,---,0.00,VWS V14.01,2013-03-22 19:54:00,
2013-03-22 15:59:00,52.5,19.5,29.90,West,259,4.0,12.0,27,0.00,,---,0.00,VWS V14.01,2013-03-22 19:59:00,
2013-03-22 16:00:00,51.2,19.2,29.91,SSW,213,4.0,12.0,28,0.00,,---,0.00,VWS V14.01,2013-03-22 20:00:00,
2013-03-22 16:04:00,52.8,20.6,29.90,WNW,288,4.0,9.0,28,0.00,,---,0.00,VWS V14.01,2013-03-22 20:04:00,
2013-03-22 16:09:00,53.1,20.0,29.90,WSW,238,2.0,10.0,27,0.00,,---,0.00,VWS V14.01,2013-03-22 20:09:00,
2013-03-22 16:14:00,53.0,20.8,29.90,WSW,237,2.0,10.0,28,0.00,,---,0.00,VWS V14.01,2013-03-22 20:14:00,
2013-03-22 16:19:00,53.2,20.1,29.90,SW,219,1.0,10.0,27,0.00,,---,0.00,VWS V14.01,2013-03-22 20:19:00,
2013-03-22 16:24:00,53.2,20.1,29.90,SW,234,5.0,10.0,27,0.00,,---,0.00,VWS V14.01,2013-03-22 20:24:00,
2013-03-22 16:29:00,53.3,20.2,29.90,West,280,4.0,10.0,27,0.00,,---,0.00,VWS V14.01,2013-03-22 20:29:00,
2013-03-22 16:30:00,51.3,19.3,29.90,WSW,252,2.0,10.0,28,0.00,,---,0.00,VWS V14.01,2013-03-22 20:30:00,
2013-03-22 16:34:00,53.6,21.3,29.90,West,275,4.0,5.0,28,0.00,,---,0.00,VWS V14.01,2013-03-22 20:34:00,
2013-03-22 16:39:00,53.8,20.6,29.90,West,269,3.0,5.0,27,0.00,,---,0.00,VWS V14.01,2013-03-22 20:39:00,
2013-03-22 16:44:00,53.9,20.7,29.90,SW,227,2.0,11.0,27,0.00,,---,0.00,VWS V14.01,2013-03-22 20:44:00,
2013-03-22 16:49:00,54.2,21.0,29.90,WNW,284,4.0,11.0,27,0.00,,---,0.00,VWS V14.01,2013-03-22 20:49:00,
2013-03-22 16:54:00,54.4,22.0,29.90,West,279,4.0,11.0,28,0.00,,---,0.00,VWS V14.01,2013-03-22 20:54:00,
2013-03-22 16:59:00,54.5,21.2,29.90,WNW,302,1.0,11.0,27,0.00,,---,0.00,VWS V14.01,2013-03-22 20:59:00,
2013-03-22 17:00:00,52.6,18.7,29.90,WNW,300,3.0,12.0,26,0.00,,---,0.00,VWS V14.01,2013-03-22 21:00:00,
2013-03-22 17:04:00,54.5,21.2,29.90,WSW,246,4.0,9.0,27,0.00,,---,0.00,VWS V14.01,2013-03-22 21:04:00,
2013-03-22 17:09:00,54.4,21.1,29.90,NW,311,2.0,10.0,27,0.00,,---,0.00,VWS V14.01,2013-03-22 21:09:00,
2013-03-22 17:14:00,54.3,21.9,29.90,WNW,294,4.0,10.0,28,0.00,,---,0.00,VWS V14.01,2013-03-22 21:14:00,
2013-03-22 17:19:00,54.1,20.9,29.90,SW,216,2.0,10.0,27,0.00,,---,0.00,VWS V14.01,2013-03-22 21:19:00,
2013-03-22 17:24:00,53.9,20.7,29.90,SSW,198,3.0,10.0,27,0.00,,---,0.00,VWS V14.01,2013-03-22 21:24:00,
2013-03-22 17:29:00,53.9,21.6,29.90,WSW,254,1.0,10.0,28,0.00,,---,0.00,VWS V14.01,2013-03-22 21:29:00,
2013-03-22 17:30:00,53.4,20.3,29.90,NW,315,2.0,10.0,27,0.00,,---,0.00,VWS V14.01,2013-03-22 21:30:00,
2013-03-22 17:34:00,53.9,20.7,29.90,West,265,2.0,8.0,27,0.00,,---,0.00,VWS V14.01,2013-03-22 21:34:00,
2013-03-22 17:39:00,53.9,20.7,29.90,NNW,331,2.0,8.0,27,0.00,,---,0.00,VWS V14.01,2013-03-22 21:39:00,
2013-03-22 17:44:00,54.0,22.5,29.90,SSW,202,4.0,8.0,29,0.00,,---,0.00,VWS V14.01,2013-03-22 21:44:00,
2013-03-22 17:49:00,53.9,20.7,29.90,WNW,296,5.0,8.0,27,0.00,,---,0.00,VWS V14.01,2013-03-22 21:49:00,
2013-03-22 17:54:00,53.8,20.6,29.90,SW,233,4.0,9.0,27,0.00,,---,0.00,VWS V14.01,2013-03-22 21:54:00,
2013-03-22 17:59:00,53.7,20.5,29.90,South,183,4.0,9.0,27,0.00,,---,0.00,VWS V14.01,2013-03-22 21:59:00,
2013-03-22 18:00:00,54.5,22.1,29.90,SW,232,5.0,11.0,28,0.00,,---,0.00,VWS V14.01,2013-03-22 22:00:00,
2013-03-22 18:04:00,53.6,20.5,29.90,WSW,254,4.0,11.0,27,0.00,,---,0.00,VWS V14.01,2013-03-22 22:04:00,
2013-03-22 18:09:00,53.5,21.2,29.90,West,269,2.0,11.0,28,0.00,,---,0.00,VWS V14.01,2013-03-22 22:09:00,
2013-03-22 18:14:00,53.5,20.4,29.90,NW,315,3.0,11.0,27,0.00,,---,0.00,VWS V14.01,2013-03-22 22:14:00,
2013-03-22 18:19:00,53.5,21.2,29.90,West,264,0.0,11.0,28,0.00,,---,0.00,VWS V14.01,2013-03-22 22:19:00,
2013-03-22 18:24:00,53.4,21.1,29.90,West,275,0.0,11.0,28,0.00,,---,0.00,VWS V14.01,2013-03-22 22:24:00,
2013-03-22 18:29:00,53.3,20.2,29.90,West,277,4.0,11.0,27,0.00,,---,0.00,VWS V14.01,2013-03-22 22:29:00,
2013-03-22 18:30:00,53.9,22.4,29.90,NW,305,3.0,10.0,29,0.00,,---,0.00,VWS V14.01,2013-03-22 22:30:00,
2013-03-22 18:34:00,53.1,20.0,29.90,West,272,1.0,8.0,27,0.00,,---,0.00,VWS V14.01,2013-03-22 22:34:00,
2013-03-22 18:39:00,53.0,19.9,29.90,WNW,292,0.0,8.0,27,0.00,,---,0.00,VWS V14.01,2013-03-22 22:39:00,
2013-03-22 18:44:00,52.8,20.6,29.90,SSW,205,4.0,10.0,28,0.00,,---,0.00,VWS V14.01,2013-03-22 22:44:00,
2013-03-22 18:49:00,52.6,20.4,29.90,West,281,0.0,10.0,28,0.00,,---,0.00,VWS V14.01,2013-03-22 22:49:00,
2013-03-22 18:54:00,52.3,20.2,29.90,WNW,292,0.0,10.0,28,0.00,,---,0.00,VWS V14.01,2013-03-22 22:54:00,
2013-03-22 18:59:00,52.1,20.8,29.90,WNW,292,0.0,10.0,29,0.00,,---,0.00,VWS V14.01,2013-03-22 22:59:00,
2013-03-22 19:00:00,53.7,20.5,29.90,WNW,288,1.0,9.0,27,0.00,,---,0.00,VWS V14.01,2013-03-22 23:00:00,
2013-03-22 19:04:00,51.7,20.5,29.91,WNW,292,0.0,4.0,29,0.00,,---,0.00,VWS V14.01,2013-03-22 23:04:00,
2013-03-22 19:09:00,51.4,21.8,29.91,WNW,292,0.0,4.0,31,0.00,,---,0.00,VWS V14.01,2013-03-22 23:09:00,
2013-03-22 19:14:00,51.0,22.2,29.91,WNW,292,0.0,4.0,32,0.00,,---,0.00,VWS V14.01,2013-03-22 23:14:00,
2013-03-22 19:19:00,50.6,21.9,29.91,West,278,0.0,4.0,32,0.00,,---,0.00,VWS V14.01,2013-03-22 23:19:00,
2013-03-22 19:24:00,50.2,22.2,29.91,West,279,0.0,4.0,33,0.00,,---,0.00,VWS V14.01,2013-03-22 23:24:00,
2013-03-22 19:29:00,49.8,23.3,29.91,West,279,0.0,4.0,35,0.00,,---,0.00,VWS V14.01,2013-03-22 23:29:00,
2013-03-22 19:30:00,53.2,20.1,29.90,WSW,252,1.0,11.0,27,0.00,,---,0.00,VWS V14.01,2013-03-22 23:30:00,
2013-03-22 19:34:00,49.4,22.9,29.91,West,279,0.0,0.0,35,0.00,,---,0.00,VWS V14.01,2013-03-22 23:34:00,
2013-03-22 19:39:00,49.1,24.0,29.91,West,279,0.0,0.0,37,0.00,,---,0.00,VWS V14.01,2013-03-22 23:39:00,
2013-03-22 19:44:00,48.7,24.2,29.91,West,279,0.0,0.0,38,0.00,,---,0.00,VWS V14.01,2013-03-22 23:44:00,
2013-03-22 19:49:00,48.2,24.4,29.92,West,279,0.0,0.0,39,0.00,,---,0.00,VWS V14.01,2013-03-22 23:49:00,
2013-03-22 19:54:00,47.7,24.0,29.92,West,279,0.0,0.0,39,0.00,,---,0.00,VWS V14.01,2013-03-22 23:54:00,
2013-03-22 19:59:00,47.2,24.7,29.92,West,279,0.0,0.0,41,0.00,,---,0.00,VWS V14.01,2013-03-22 23:59:00,
2013-03-22 20:00:00,52.0,20.8,29.90,WNW,292,2.0,10.0,29,0.00,,---,0.00,VWS V14.01,2013-03-23 00:00:00,
2013-03-22 20:04:00,46.6,25.3,29.91,West,279,0.0,0.0,43,0.00,,---,0.00,VWS V14.01,2013-03-23 00:04:00,
2013-03-22 20:09:00,46.1,24.9,29.92,West,279,0.0,0.0,43,0.00,,---,0.00,VWS V14.01,2013-03-23 00:09:00,
2013-03-22 20:14:00,45.6,25.5,29.92,West,279,0.0,0.0,45,0.00,,---,0.00,VWS V14.01,2013-03-23 00:14:00,
2013-03-22 20:19:00,45.1,26.1,29.92,West,279,0.0,0.0,47,0.00,,---,0.00,VWS V14.01,2013-03-23 00:19:00,
2013-03-22 20:24:00,44.6,26.1,29.92,West,279,0.0,0.0,48,0.00,,---,0.00,VWS V14.01,2013-03-23 00:24:00,
2013-03-22 20:29:00,44.0,25.6,29.92,West,279,0.0,0.0,48,0.00,,---,0.00,VWS V14.01,2013-03-23 00:29:00,
2013-03-22 20:30:00,49.7,23.2,29.91,West,279,0.0,4.0,35,0.00,,---,0.00,VWS V14.01,2013-03-23 00:30:00,
2013-03-22 20:34:00,43.4,26.0,29.92,West,279,0.0,0.0,50,0.00,,---,0.00,VWS V14.01,2013-03-23 00:34:00,
2013-03-22 20:39:00,42.9,26.0,29.93,West,279,0.0,0.0,51,0.00,,---,0.00,VWS V14.01,2013-03-23 00:39:00,
2013-03-22 20:44:00,42.4,26.0,29.93,West,279,0.0,0.0,52,0.00,,---,0.00,VWS V14.01,2013-03-23 00:44:00,
2013-03-22 20:49:00,42.0,26.6,29.93,West,279,0.0,0.0,54,0.00,,---,0.00,VWS V14.01,2013-03-23 00:49:00,
2013-03-22 20:54:00,41.5,25.7,29.93,West,279,0.0,0.0,53,0.00,,---,0.00,VWS V14.01,2013-03-23 00:54:00,
2013-03-22 20:59:00,41.1,25.7,29.93,West,279,0.0,0.0,54,0.00,,---,0.00,VWS V14.01,2013-03-23 00:59:00,
2013-03-22 21:00:00,47.0,25.1,29.91,West,279,0.0,0.0,42,0.00,,---,0.00,VWS V14.01,2013-03-23 01:00:00,
2013-03-22 21:04:00,40.6,26.1,29.93,West,279,0.0,0.0,56,0.00,,---,0.00,VWS V14.01,2013-03-23 01:04:00,
2013-03-22 21:09:00,40.1,26.1,29.93,West,279,0.0,0.0,57,0.00,,---,0.00,VWS V14.01,2013-03-23 01:09:00,
2013-03-22 21:14:00,39.7,26.6,29.93,West,279,0.0,0.0,59,0.00,,---,0.00,VWS V14.01,2013-03-23 01:14:00,
2013-03-22 21:19:00,39.3,26.2,29.93,West,279,0.0,0.0,59,0.00,,---,0.00,VWS V14.01,2013-03-23 01:19:00,
2013-03-22 21:24:00,39.0,26.3,29.93,West,279,0.0,0.0,60,0.00,,---,0.00,VWS V14.01,2013-03-23 01:24:00,
2013-03-22 21:29:00,38.6,26.3,29.93,West,279,0.0,0.0,61,0.00,,---,0.00,VWS V14.01,2013-03-23 01:29:00,
2013-03-22 21:30:00,43.7,25.8,29.92,West,279,0.0,0.0,49,0.00,,---,0.00,VWS V14.01,2013-03-23 01:30:00,
2013-03-22 21:34:00,38.1,26.6,29.94,West,279,0.0,0.0,63,0.00,,---,0.00,VWS V14.01,2013-03-23 01:34:00,
2013-03-22 21:39:00,37.6,26.5,29.94,West,279,0.0,0.0,64,0.00,,---,0.00,VWS V14.01,2013-03-23 01:39:00,
2013-03-22 21:44:00,37.3,26.6,29.94,West,279,0.0,0.0,65,0.00,,---,0.00,VWS V14.01,2013-03-23 01:44:00,
2013-03-22 21:49:00,37.0,26.7,29.94,West,279,0.0,0.0,66,0.00,,---,0.00,VWS V14.01,2013-03-23 01:49:00,
2013-03-22 21:54:00,36.7,26.8,29.94,West,279,0.0,0.0,67,0.00,,---,0.00,VWS V14.01,2013-03-23 01:54:00,
2013-03-22 21:59:00,36.6,27.4,29.94,West,279,0.0,0.0,69,0.00,,---,0.00,VWS V14.01,2013-03-23 01:59:00,
2013-03-22 22:00:00,40.9,26.0,29.93,West,279,0.0,0.0,55,0.00,,---,0.00,VWS V14.01,2013-03-23 02:00:00,
2013-03-22 22:04:00,36.4,27.6,29.94,West,279,0.0,0.0,70,0.00,,---,0.00,VWS V14.01,2013-03-23 02:04:00,
2013-03-22 22:09:00,36.2,27.7,29.94,West,279,0.0,0.0,71,0.00,,---,0.00,VWS V14.01,2013-03-23 02:09:00,
2013-03-22 22:14:00,36.2,27.7,29.95,West,279,0.0,0.0,71,0.00,,---,0.00,VWS V14.01,2013-03-23 02:14:00,
2013-03-22 22:19:00,36.2,28.1,29.95,West,279,0.0,0.0,72,0.00,,---,0.00,VWS V14.01,2013-03-23 02:19:00,
2013-03-22 22:24:00,36.1,28.3,29.95,West,279,0.0,0.0,73,0.00,,---,0.00,VWS V14.01,2013-03-23 02:24:00,
2013-03-22 22:29:00,36.1,28.6,29.95,West,279,0.0,0.0,74,0.00,,---,0.00,VWS V14.01,2013-03-23 02:29:00,
2013-03-22 22:30:00,38.4,26.5,29.93,West,279,0.0,0.0,62,0.00,,---,0.00,VWS V14.01,2013-03-23 02:30:00,
2013-03-22 22:34:00,36.1,28.6,29.95,West,279,0.0,0.0,74,0.00,,---,0.00,VWS V14.01,2013-03-23 02:34:00,
2013-03-22 22:39:00,36.1,28.6,29.95,West,279,0.0,0.0,74,0.00,,---,0.00,VWS V14.01,2013-03-23 02:39:00,
2013-03-22 22:44:00,36.2,28.7,29.95,West,279,0.0,0.0,74,0.00,,---,0.00,VWS V14.01,2013-03-23 02:44:00,
2013-03-22 22:49:00,36.4,28.9,29.95,West,279,0.0,0.0,74,0.00,,---,0.00,VWS V14.01,2013-03-23 02:49:00,
2013-03-22 22:54:00,36.4,28.9,29.95,West,279,0.0,0.0,74,0.00,,---,0.00,VWS V14.01,2013-03-23 02:54:00,
2013-03-22 22:59:00,36.5,29.0,29.95,West,279,0.0,0.0,74,0.00,,---,0.00,VWS V14.01,2013-03-23 02:59:00,
2013-03-22 23:00:00,36.5,27.3,29.94,West,279,0.0,0.0,69,0.00,,---,0.00,VWS V14.01,2013-03-23 03:00:00,
2013-03-22 23:04:00,36.6,28.8,29.95,West,279,0.0,0.0,73,0.00,,---,0.00,VWS V14.01,2013-03-23 03:04:00,
2013-03-22 23:09:00,36.7,29.2,29.95,West,279,0.0,0.0,74,0.00,,---,0.00,VWS V14.01,2013-03-23 03:09:00,
2013-03-22 23:14:00,36.8,29.3,29.95,West,279,0.0,0.0,74,0.00,,---,0.00,VWS V14.01,2013-03-23 03:14:00,
2013-03-22 23:19:00,36.9,29.4,29.95,West,279,0.0,0.0,74,0.00,,---,0.00,VWS V14.01,2013-03-23 03:19:00,
2013-03-22 23:24:00,37.0,29.2,29.95,West,279,0.0,0.0,73,0.00,,---,0.00,VWS V14.01,2013-03-23 03:24:00,
2013-03-22 23:29:00,37.1,29.6,29.95,West,279,0.0,0.0,74,0.00,,---,0.00,VWS V14.01,2013-03-23 03:29:00,
2013-03-22 23:30:00,36.1,28.6,29.95,West,279,0.0,0.0,74,0.00,,---,0.00,VWS V14.01,2013-03-23 03:30:00,
2013-03-22 23:34:00,37.1,29.3,29.95,West,279,0.0,0.0,73,0.00,,---,0.00,VWS V14.01,2013-03-23 03:34:00,
2013-03-22 23:39:00,37.2,29.7,29.95,West,279,0.0,0.0,74,0.00,,---,0.00,VWS V14.01,2013-03-23 03:39:00,
2013-03-22 23:44:00,37.3,29.8,29.95,West,279,0.0,0.0,74,0.00,,---,0.00,VWS V14.01,2013-03-23 03:44:00,
2013-03-22 23:49:00,37.3,29.8,29.95,West,279,0.0,0.0,74,0.00,,---,0.00,VWS V14.01,2013-03-23 03:49:00,
2013-03-22 23:54:00,37.3,29.5,29.95,West,279,0.0,0.0,73,0.00,,---,0.00,VWS V14.01,2013-03-23 03:54:00,
2013-03-22 23:59:00,37.3,29.5,29.95,West,279,0.0,0.0,73,0.00,,---,0.00,VWS V14.01,2013-03-23 03:59:00,